sensor_id;sensor_type;location;lat;lon;timestamp;temperature;humidity
921;DHT22;447;51.332;6.778;2023-02-07T00:01:23;6.00;99.90
921;DHT22;447;51.332;6.778;2023-02-07T00:03:51;6.00;99.90
921;DHT22;447;51.332;6.778;2023-02-07T00:06:33;6.00;99.90
921;DHT22;447;51.332;6.778;2023-02-07T00:09:01;6.00;99.90
921;DHT22;447;51.332;6.778;2023-02-07T00:11:28;6.00;99.90
921;DHT22;447;51.332;6.778;2023-02-07T00:13:55;6.00;99.90
921;DHT22;447;51.332;6.778;2023-02-07T00:16:22;6.00;99.90
921;DHT22;447;51.332;6.778;2023-02-07T00:18:50;5.90;99.90
921;DHT22;447;51.332;6.778;2023-02-07T00:21:19;5.90;99.90
921;DHT22;447;51.332;6.778;2023-02-07T00:23:45;5.90;99.90
921;DHT22;447;51.332;6.778;2023-02-07T00:26:13;5.90;99.90
921;DHT22;447;51.332;6.778;2023-02-07T00:28:43;5.90;99.90
921;DHT22;447;51.332;6.778;2023-02-07T00:31:12;5.90;99.90
921;DHT22;447;51.332;6.778;2023-02-07T00:33:41;5.80;99.90
921;DHT22;447;51.332;6.778;2023-02-07T00:36:13;5.90;99.90
921;DHT22;447;51.332;6.778;2023-02-07T00:38:40;5.90;99.90
921;DHT22;447;51.332;6.778;2023-02-07T00:41:06;5.80;99.90
921;DHT22;447;51.332;6.778;2023-02-07T00:43:33;5.80;99.90
921;DHT22;447;51.332;6.778;2023-02-07T00:46:01;5.80;99.90
921;DHT22;447;51.332;6.778;2023-02-07T00:48:29;5.80;99.90
921;DHT22;447;51.332;6.778;2023-02-07T00:50:56;5.80;99.90
921;DHT22;447;51.332;6.778;2023-02-07T00:53:22;5.80;99.90
921;DHT22;447;51.332;6.778;2023-02-07T00:55:49;5.80;99.90
921;DHT22;447;51.332;6.778;2023-02-07T00:58:15;5.80;99.90
921;DHT22;447;51.332;6.778;2023-02-07T01:00:44;5.80;99.90
921;DHT22;447;51.332;6.778;2023-02-07T01:03:12;5.70;99.90
921;DHT22;447;51.332;6.778;2023-02-07T01:05:38;5.70;99.90
921;DHT22;447;51.332;6.778;2023-02-07T01:08:05;5.80;99.90
921;DHT22;447;51.332;6.778;2023-02-07T01:10:31;5.70;99.90
921;DHT22;447;51.332;6.778;2023-02-07T01:12:57;5.70;99.90
921;DHT22;447;51.332;6.778;2023-02-07T01:15:25;5.70;99.90
921;DHT22;447;51.332;6.778;2023-02-07T01:17:51;5.70;99.90
921;DHT22;447;51.332;6.778;2023-02-07T01:20:19;5.70;99.90
921;DHT22;447;51.332;6.778;2023-02-07T01:22:45;5.70;99.90
921;DHT22;447;51.332;6.778;2023-02-07T01:25:15;5.70;99.90
921;DHT22;447;51.332;6.778;2023-02-07T01:27:43;5.70;99.90
921;DHT22;447;51.332;6.778;2023-02-07T01:30:12;5.70;99.90
921;DHT22;447;51.332;6.778;2023-02-07T01:32:38;5.70;99.90
921;DHT22;447;51.332;6.778;2023-02-07T01:35:05;5.70;99.90
921;DHT22;447;51.332;6.778;2023-02-07T01:37:32;5.70;99.90
921;DHT22;447;51.332;6.778;2023-02-07T01:39:59;5.60;99.90
921;DHT22;447;51.332;6.778;2023-02-07T01:42:30;5.70;99.90
921;DHT22;447;51.332;6.778;2023-02-07T01:45:05;5.60;99.90
921;DHT22;447;51.332;6.778;2023-02-07T01:47:32;5.60;99.90
921;DHT22;447;51.332;6.778;2023-02-07T01:50:02;5.60;99.90
921;DHT22;447;51.332;6.778;2023-02-07T01:52:32;5.60;99.90
921;DHT22;447;51.332;6.778;2023-02-07T01:55:08;5.60;99.90
921;DHT22;447;51.332;6.778;2023-02-07T01:57:38;5.50;99.90
921;DHT22;447;51.332;6.778;2023-02-07T02:00:07;5.60;99.90
921;DHT22;447;51.332;6.778;2023-02-07T02:02:41;5.60;99.90
921;DHT22;447;51.332;6.778;2023-02-07T02:05:08;5.50;99.90
921;DHT22;447;51.332;6.778;2023-02-07T02:07:35;5.50;99.90
921;DHT22;447;51.332;6.778;2023-02-07T02:10:04;5.50;99.90
921;DHT22;447;51.332;6.778;2023-02-07T02:17:44;5.50;99.90
921;DHT22;447;51.332;6.778;2023-02-07T02:34:15;5.40;99.90
921;DHT22;447;51.332;6.778;2023-02-07T02:39:33;5.40;99.90
921;DHT22;447;51.332;6.778;2023-02-07T02:44:51;5.40;99.90
921;DHT22;447;51.332;6.778;2023-02-07T02:47:21;5.40;99.90
921;DHT22;447;51.332;6.778;2023-02-07T02:49:48;5.40;99.90
921;DHT22;447;51.332;6.778;2023-02-07T02:52:14;5.30;99.90
921;DHT22;447;51.332;6.778;2023-02-07T02:54:43;5.30;99.90
921;DHT22;447;51.332;6.778;2023-02-07T02:57:41;5.30;99.90
921;DHT22;447;51.332;6.778;2023-02-07T03:03:15;5.30;99.90
921;DHT22;447;51.332;6.778;2023-02-07T03:06:15;5.30;99.90
921;DHT22;447;51.332;6.778;2023-02-07T03:11:55;5.20;99.90
921;DHT22;447;51.332;6.778;2023-02-07T03:14:35;5.20;99.90
921;DHT22;447;51.332;6.778;2023-02-07T03:17:18;5.20;99.90
921;DHT22;447;51.332;6.778;2023-02-07T03:20:03;5.20;99.90
921;DHT22;447;51.332;6.778;2023-02-07T03:22:32;5.20;99.90
921;DHT22;447;51.332;6.778;2023-02-07T03:25:00;5.20;99.90
921;DHT22;447;51.332;6.778;2023-02-07T03:27:29;5.20;99.90
921;DHT22;447;51.332;6.778;2023-02-07T03:30:03;5.20;99.90
921;DHT22;447;51.332;6.778;2023-02-07T03:32:34;5.20;99.90
921;DHT22;447;51.332;6.778;2023-02-07T03:35:34;5.20;99.90
921;DHT22;447;51.332;6.778;2023-02-07T03:38:03;5.20;99.90
921;DHT22;447;51.332;6.778;2023-02-07T03:40:46;5.10;99.90
921;DHT22;447;51.332;6.778;2023-02-07T03:43:24;5.10;99.90
921;DHT22;447;51.332;6.778;2023-02-07T03:45:51;5.10;99.90
921;DHT22;447;51.332;6.778;2023-02-07T03:48:17;5.10;99.90
921;DHT22;447;51.332;6.778;2023-02-07T03:50:43;5.10;99.90
921;DHT22;447;51.332;6.778;2023-02-07T03:53:09;5.10;99.90
921;DHT22;447;51.332;6.778;2023-02-07T03:55:35;5.10;99.90
921;DHT22;447;51.332;6.778;2023-02-07T03:58:04;5.10;99.90
921;DHT22;447;51.332;6.778;2023-02-07T04:00:32;5.10;99.90
921;DHT22;447;51.332;6.778;2023-02-07T04:02:59;5.10;99.90
921;DHT22;447;51.332;6.778;2023-02-07T04:05:25;5.10;99.90
921;DHT22;447;51.332;6.778;2023-02-07T04:07:51;5.00;99.90
921;DHT22;447;51.332;6.778;2023-02-07T04:10:19;5.10;99.90
921;DHT22;447;51.332;6.778;2023-02-07T04:12:48;5.00;99.90
921;DHT22;447;51.332;6.778;2023-02-07T04:15:14;5.00;99.90
921;DHT22;447;51.332;6.778;2023-02-07T04:17:40;5.00;99.90
921;DHT22;447;51.332;6.778;2023-02-07T04:20:11;5.00;99.90
921;DHT22;447;51.332;6.778;2023-02-07T04:22:40;5.00;99.90
921;DHT22;447;51.332;6.778;2023-02-07T04:25:09;5.00;99.90
921;DHT22;447;51.332;6.778;2023-02-07T04:27:38;5.00;99.90
921;DHT22;447;51.332;6.778;2023-02-07T04:30:06;4.90;99.90
921;DHT22;447;51.332;6.778;2023-02-07T04:32:33;4.90;99.90
921;DHT22;447;51.332;6.778;2023-02-07T04:35:00;4.90;99.90
921;DHT22;447;51.332;6.778;2023-02-07T04:37:26;4.90;99.90
921;DHT22;447;51.332;6.778;2023-02-07T04:39:52;4.90;99.90
921;DHT22;447;51.332;6.778;2023-02-07T04:42:18;4.90;99.90
921;DHT22;447;51.332;6.778;2023-02-07T04:44:44;4.90;99.90
921;DHT22;447;51.332;6.778;2023-02-07T04:47:10;4.90;99.90
921;DHT22;447;51.332;6.778;2023-02-07T04:49:36;4.90;99.90
921;DHT22;447;51.332;6.778;2023-02-07T04:52:02;4.90;99.90
921;DHT22;447;51.332;6.778;2023-02-07T04:54:28;4.90;99.90
921;DHT22;447;51.332;6.778;2023-02-07T04:56:54;4.80;99.90
921;DHT22;447;51.332;6.778;2023-02-07T04:59:20;4.80;99.90
921;DHT22;447;51.332;6.778;2023-02-07T05:01:48;4.80;99.90
921;DHT22;447;51.332;6.778;2023-02-07T05:04:18;4.80;99.90
921;DHT22;447;51.332;6.778;2023-02-07T05:06:44;4.80;99.90
921;DHT22;447;51.332;6.778;2023-02-07T05:09:10;4.80;99.90
921;DHT22;447;51.332;6.778;2023-02-07T05:11:36;4.80;99.90
921;DHT22;447;51.332;6.778;2023-02-07T05:14:03;4.80;99.90
921;DHT22;447;51.332;6.778;2023-02-07T05:16:29;4.80;99.90
921;DHT22;447;51.332;6.778;2023-02-07T05:18:55;4.80;99.90
921;DHT22;447;51.332;6.778;2023-02-07T05:21:21;4.70;99.90
921;DHT22;447;51.332;6.778;2023-02-07T05:23:49;4.80;99.90
921;DHT22;447;51.332;6.778;2023-02-07T05:26:15;4.70;99.90
921;DHT22;447;51.332;6.778;2023-02-07T05:28:43;4.70;99.90
921;DHT22;447;51.332;6.778;2023-02-07T05:31:09;4.70;99.90
921;DHT22;447;51.332;6.778;2023-02-07T05:33:36;4.70;99.90
921;DHT22;447;51.332;6.778;2023-02-07T05:36:03;4.70;99.90
921;DHT22;447;51.332;6.778;2023-02-07T05:38:29;4.70;99.90
921;DHT22;447;51.332;6.778;2023-02-07T05:40:56;4.70;99.90
921;DHT22;447;51.332;6.778;2023-02-07T05:43:22;4.70;99.90
921;DHT22;447;51.332;6.778;2023-02-07T05:45:48;4.60;99.90
921;DHT22;447;51.332;6.778;2023-02-07T05:48:16;4.60;99.90
921;DHT22;447;51.332;6.778;2023-02-07T05:50:43;4.60;99.90
921;DHT22;447;51.332;6.778;2023-02-07T05:53:10;4.60;99.90
921;DHT22;447;51.332;6.778;2023-02-07T05:55:39;4.60;99.90
921;DHT22;447;51.332;6.778;2023-02-07T05:58:05;4.60;99.90
921;DHT22;447;51.332;6.778;2023-02-07T06:00:33;4.60;99.90
921;DHT22;447;51.332;6.778;2023-02-07T06:03:00;4.60;99.90
921;DHT22;447;51.332;6.778;2023-02-07T06:05:25;4.60;99.90
921;DHT22;447;51.332;6.778;2023-02-07T06:07:56;4.60;99.90
921;DHT22;447;51.332;6.778;2023-02-07T06:10:22;4.60;99.90
921;DHT22;447;51.332;6.778;2023-02-07T06:12:48;4.50;99.90
921;DHT22;447;51.332;6.778;2023-02-07T06:15:17;4.60;99.90
921;DHT22;447;51.332;6.778;2023-02-07T06:17:43;4.50;99.90
921;DHT22;447;51.332;6.778;2023-02-07T06:20:09;4.50;99.90
921;DHT22;447;51.332;6.778;2023-02-07T06:22:38;4.50;99.90
921;DHT22;447;51.332;6.778;2023-02-07T06:25:04;4.50;99.90
921;DHT22;447;51.332;6.778;2023-02-07T06:27:30;4.50;99.90
921;DHT22;447;51.332;6.778;2023-02-07T06:29:56;4.50;99.90
921;DHT22;447;51.332;6.778;2023-02-07T06:32:22;4.50;99.90
921;DHT22;447;51.332;6.778;2023-02-07T06:34:51;4.50;99.90
921;DHT22;447;51.332;6.778;2023-02-07T06:37:17;4.50;99.90
921;DHT22;447;51.332;6.778;2023-02-07T06:39:43;4.40;99.90
921;DHT22;447;51.332;6.778;2023-02-07T06:42:09;4.50;99.90
921;DHT22;447;51.332;6.778;2023-02-07T06:44:36;4.40;99.90
921;DHT22;447;51.332;6.778;2023-02-07T06:47:03;4.40;99.90
921;DHT22;447;51.332;6.778;2023-02-07T06:49:30;4.40;99.90
921;DHT22;447;51.332;6.778;2023-02-07T06:52:00;4.40;99.90
921;DHT22;447;51.332;6.778;2023-02-07T06:54:26;4.40;99.90
921;DHT22;447;51.332;6.778;2023-02-07T06:56:52;4.40;99.90
921;DHT22;447;51.332;6.778;2023-02-07T06:59:23;4.40;99.90
921;DHT22;447;51.332;6.778;2023-02-07T07:01:50;4.40;99.90
921;DHT22;447;51.332;6.778;2023-02-07T07:04:16;4.40;99.90
921;DHT22;447;51.332;6.778;2023-02-07T07:06:43;4.40;99.90
921;DHT22;447;51.332;6.778;2023-02-07T07:09:09;4.30;99.90
921;DHT22;447;51.332;6.778;2023-02-07T07:11:35;4.30;99.90
921;DHT22;447;51.332;6.778;2023-02-07T07:14:12;4.30;99.90
921;DHT22;447;51.332;6.778;2023-02-07T07:16:41;4.30;99.90
921;DHT22;447;51.332;6.778;2023-02-07T07:19:07;4.30;99.90
921;DHT22;447;51.332;6.778;2023-02-07T07:21:33;4.30;99.90
921;DHT22;447;51.332;6.778;2023-02-07T07:23:59;4.30;99.90
921;DHT22;447;51.332;6.778;2023-02-07T07:26:28;4.30;99.90
921;DHT22;447;51.332;6.778;2023-02-07T07:28:56;4.30;99.90
921;DHT22;447;51.332;6.778;2023-02-07T07:31:25;4.30;99.90
921;DHT22;447;51.332;6.778;2023-02-07T07:33:53;4.30;99.90
921;DHT22;447;51.332;6.778;2023-02-07T07:36:19;4.30;99.90
921;DHT22;447;51.332;6.778;2023-02-07T07:38:46;4.20;99.90
921;DHT22;447;51.332;6.778;2023-02-07T07:41:11;4.20;99.90
921;DHT22;447;51.332;6.778;2023-02-07T07:43:38;4.20;99.90
921;DHT22;447;51.332;6.778;2023-02-07T07:46:04;4.20;99.90
921;DHT22;447;51.332;6.778;2023-02-07T07:48:35;4.20;99.90
921;DHT22;447;51.332;6.778;2023-02-07T07:51:03;4.20;99.90
921;DHT22;447;51.332;6.778;2023-02-07T07:53:29;4.20;99.90
921;DHT22;447;51.332;6.778;2023-02-07T07:55:56;4.20;99.90
921;DHT22;447;51.332;6.778;2023-02-07T07:58:23;4.20;99.90
921;DHT22;447;51.332;6.778;2023-02-07T08:00:50;4.20;99.90
921;DHT22;447;51.332;6.778;2023-02-07T08:03:17;4.20;99.90
921;DHT22;447;51.332;6.778;2023-02-07T08:05:47;4.20;99.90
921;DHT22;447;51.332;6.778;2023-02-07T08:08:13;4.20;99.90
921;DHT22;447;51.332;6.778;2023-02-07T08:10:40;4.10;99.90
921;DHT22;447;51.332;6.778;2023-02-07T08:13:06;4.10;99.90
921;DHT22;447;51.332;6.778;2023-02-07T08:15:34;4.10;99.90
921;DHT22;447;51.332;6.778;2023-02-07T08:18:01;4.10;99.90
921;DHT22;447;51.332;6.778;2023-02-07T08:20:28;4.10;99.90
921;DHT22;447;51.332;6.778;2023-02-07T08:22:59;4.10;99.90
921;DHT22;447;51.332;6.778;2023-02-07T08:25:27;4.10;99.90
921;DHT22;447;51.332;6.778;2023-02-07T08:27:54;4.10;99.90
921;DHT22;447;51.332;6.778;2023-02-07T08:30:20;4.10;99.90
921;DHT22;447;51.332;6.778;2023-02-07T08:32:49;4.10;99.90
921;DHT22;447;51.332;6.778;2023-02-07T08:35:16;4.10;99.90
921;DHT22;447;51.332;6.778;2023-02-07T08:37:43;4.10;99.90
921;DHT22;447;51.332;6.778;2023-02-07T08:40:09;4.10;99.90
921;DHT22;447;51.332;6.778;2023-02-07T08:42:35;4.10;99.90
921;DHT22;447;51.332;6.778;2023-02-07T08:45:02;4.10;99.90
921;DHT22;447;51.332;6.778;2023-02-07T08:47:30;4.10;99.90
921;DHT22;447;51.332;6.778;2023-02-07T08:49:58;4.10;99.90
921;DHT22;447;51.332;6.778;2023-02-07T08:52:24;4.10;99.90
921;DHT22;447;51.332;6.778;2023-02-07T08:54:50;4.10;99.90
921;DHT22;447;51.332;6.778;2023-02-07T08:57:16;4.10;99.90
921;DHT22;447;51.332;6.778;2023-02-07T08:59:48;4.10;99.90
921;DHT22;447;51.332;6.778;2023-02-07T09:02:14;4.10;99.90
921;DHT22;447;51.332;6.778;2023-02-07T09:04:40;4.10;99.90
921;DHT22;447;51.332;6.778;2023-02-07T09:07:09;4.10;99.90
921;DHT22;447;51.332;6.778;2023-02-07T09:09:35;4.10;99.90
921;DHT22;447;51.332;6.778;2023-02-07T09:12:02;4.10;99.90
921;DHT22;447;51.332;6.778;2023-02-07T09:14:27;4.10;99.90
921;DHT22;447;51.332;6.778;2023-02-07T09:16:54;4.10;99.90
921;DHT22;447;51.332;6.778;2023-02-07T09:19:22;4.10;99.90
921;DHT22;447;51.332;6.778;2023-02-07T09:21:48;4.10;99.90
921;DHT22;447;51.332;6.778;2023-02-07T09:24:14;4.10;99.90
921;DHT22;447;51.332;6.778;2023-02-07T09:26:44;4.10;99.90
921;DHT22;447;51.332;6.778;2023-02-07T09:29:13;4.10;99.90
921;DHT22;447;51.332;6.778;2023-02-07T09:31:39;4.10;99.90
921;DHT22;447;51.332;6.778;2023-02-07T09:34:06;4.10;99.90
921;DHT22;447;51.332;6.778;2023-02-07T09:36:32;4.10;99.90
921;DHT22;447;51.332;6.778;2023-02-07T09:39:04;4.20;99.90
921;DHT22;447;51.332;6.778;2023-02-07T09:44:14;4.20;99.90
921;DHT22;447;51.332;6.778;2023-02-07T09:46:48;4.20;99.90
921;DHT22;447;51.332;6.778;2023-02-07T09:51:56;4.20;99.90
921;DHT22;447;51.332;6.778;2023-02-07T09:54:40;4.20;99.90
921;DHT22;447;51.332;6.778;2023-02-07T09:57:19;4.20;99.90
921;DHT22;447;51.332;6.778;2023-02-07T10:02:37;4.20;99.90
921;DHT22;447;51.332;6.778;2023-02-07T10:05:20;4.20;99.90
921;DHT22;447;51.332;6.778;2023-02-07T10:07:50;4.30;99.90
921;DHT22;447;51.332;6.778;2023-02-07T10:10:17;4.30;99.90
921;DHT22;447;51.332;6.778;2023-02-07T10:20:59;4.30;99.90
921;DHT22;447;51.332;6.778;2023-02-07T10:23:42;4.30;99.90
921;DHT22;447;51.332;6.778;2023-02-07T10:29:21;4.30;99.90
921;DHT22;447;51.332;6.778;2023-02-07T10:31:52;4.30;99.90
921;DHT22;447;51.332;6.778;2023-02-07T10:34:23;4.30;99.90
921;DHT22;447;51.332;6.778;2023-02-07T10:36:55;4.30;99.90
921;DHT22;447;51.332;6.778;2023-02-07T10:41:56;4.40;99.90
921;DHT22;447;51.332;6.778;2023-02-07T10:44:23;4.40;99.90
921;DHT22;447;51.332;6.778;2023-02-07T10:47:00;4.40;99.90
921;DHT22;447;51.332;6.778;2023-02-07T10:49:31;4.40;99.90
921;DHT22;447;51.332;6.778;2023-02-07T10:52:01;4.40;99.90
921;DHT22;447;51.332;6.778;2023-02-07T10:54:57;4.40;99.90
921;DHT22;447;51.332;6.778;2023-02-07T10:57:25;4.40;99.90
921;DHT22;447;51.332;6.778;2023-02-07T11:02:50;4.40;99.90
921;DHT22;447;51.332;6.778;2023-02-07T11:08:25;4.40;99.90
921;DHT22;447;51.332;6.778;2023-02-07T11:10:57;4.40;99.90
921;DHT22;447;51.332;6.778;2023-02-07T11:13:30;4.40;99.90
921;DHT22;447;51.332;6.778;2023-02-07T11:16:09;4.50;99.90
921;DHT22;447;51.332;6.778;2023-02-07T11:21:28;4.50;99.90
921;DHT22;447;51.332;6.778;2023-02-07T11:24:14;4.50;99.90
921;DHT22;447;51.332;6.778;2023-02-07T11:29:43;4.50;99.90
921;DHT22;447;51.332;6.778;2023-02-07T11:32:14;4.50;99.90
921;DHT22;447;51.332;6.778;2023-02-07T11:34:52;4.50;99.90
921;DHT22;447;51.332;6.778;2023-02-07T11:40:18;4.60;99.90
921;DHT22;447;51.332;6.778;2023-02-07T11:42:55;4.60;99.90
921;DHT22;447;51.332;6.778;2023-02-07T11:45:22;4.60;99.90
921;DHT22;447;51.332;6.778;2023-02-07T11:47:53;4.60;99.90
921;DHT22;447;51.332;6.778;2023-02-07T11:52:54;4.60;99.90
921;DHT22;447;51.332;6.778;2023-02-07T11:55:29;4.70;99.90
921;DHT22;447;51.332;6.778;2023-02-07T11:57:56;4.70;99.90
921;DHT22;447;51.332;6.778;2023-02-07T12:00:27;4.70;99.90
921;DHT22;447;51.332;6.778;2023-02-07T12:05:29;4.70;99.90
921;DHT22;447;51.332;6.778;2023-02-07T12:08:00;4.70;99.90
921;DHT22;447;51.332;6.778;2023-02-07T12:10:37;4.70;99.90
921;DHT22;447;51.332;6.778;2023-02-07T12:13:19;4.70;99.90
921;DHT22;447;51.332;6.778;2023-02-07T12:15:51;4.70;99.90
921;DHT22;447;51.332;6.778;2023-02-07T12:18:32;4.70;99.90
921;DHT22;447;51.332;6.778;2023-02-07T12:21:12;4.70;99.90
921;DHT22;447;51.332;6.778;2023-02-07T12:23:44;4.70;99.90
921;DHT22;447;51.332;6.778;2023-02-07T12:26:22;4.70;99.90
921;DHT22;447;51.332;6.778;2023-02-07T12:32:07;4.80;99.90
921;DHT22;447;51.332;6.778;2023-02-07T12:34:51;4.80;99.90
921;DHT22;447;51.332;6.778;2023-02-07T12:40:26;4.80;99.90
921;DHT22;447;51.332;6.778;2023-02-07T12:42:58;4.80;99.90
921;DHT22;447;51.332;6.778;2023-02-07T12:59:13;4.80;99.90
921;DHT22;447;51.332;6.778;2023-02-07T13:01:51;4.90;99.90
921;DHT22;447;51.332;6.778;2023-02-07T13:07:37;4.90;99.90
921;DHT22;447;51.332;6.778;2023-02-07T13:18:06;4.90;99.90
921;DHT22;447;51.332;6.778;2023-02-07T13:23:32;5.00;99.90
921;DHT22;447;51.332;6.778;2023-02-07T13:26:25;5.00;99.90
921;DHT22;447;51.332;6.778;2023-02-07T13:29:03;5.00;99.90
921;DHT22;447;51.332;6.778;2023-02-07T13:31:45;5.00;99.90
921;DHT22;447;51.332;6.778;2023-02-07T13:34:20;5.00;99.90
921;DHT22;447;51.332;6.778;2023-02-07T13:36:52;5.00;99.90
921;DHT22;447;51.332;6.778;2023-02-07T13:42:20;5.00;99.90
921;DHT22;447;51.332;6.778;2023-02-07T13:47:42;5.10;99.90
921;DHT22;447;51.332;6.778;2023-02-07T13:50:35;5.10;99.90
921;DHT22;447;51.332;6.778;2023-02-07T13:53:27;5.10;99.90
921;DHT22;447;51.332;6.778;2023-02-07T13:56:11;5.10;99.90
921;DHT22;447;51.332;6.778;2023-02-07T13:58:59;5.10;99.90
921;DHT22;447;51.332;6.778;2023-02-07T14:01:50;5.10;99.90
921;DHT22;447;51.332;6.778;2023-02-07T14:04:20;5.10;99.90
921;DHT22;447;51.332;6.778;2023-02-07T14:12:00;5.20;99.90
921;DHT22;447;51.332;6.778;2023-02-07T14:14:34;5.10;99.90
921;DHT22;447;51.332;6.778;2023-02-07T14:17:07;5.20;99.90
921;DHT22;447;51.332;6.778;2023-02-07T14:30:29;5.20;99.90
921;DHT22;447;51.332;6.778;2023-02-07T14:33:19;5.20;99.90
921;DHT22;447;51.332;6.778;2023-02-07T14:39:27;5.20;99.90
921;DHT22;447;51.332;6.778;2023-02-07T14:41:32;5.20;99.90
921;DHT22;447;51.332;6.778;2023-02-07T14:44:01;5.20;99.90
921;DHT22;447;51.332;6.778;2023-02-07T14:46:32;5.20;99.90
921;DHT22;447;51.332;6.778;2023-02-07T14:49:19;5.30;99.90
921;DHT22;447;51.332;6.778;2023-02-07T14:51:47;5.30;99.90
921;DHT22;447;51.332;6.778;2023-02-07T14:54:27;5.20;99.90
921;DHT22;447;51.332;6.778;2023-02-07T14:57:07;5.30;99.90
921;DHT22;447;51.332;6.778;2023-02-07T14:59:53;5.20;99.90
921;DHT22;447;51.332;6.778;2023-02-07T15:08:06;5.30;99.90
921;DHT22;447;51.332;6.778;2023-02-07T15:10:39;5.30;99.90
921;DHT22;447;51.332;6.778;2023-02-07T15:13:32;5.30;99.90
921;DHT22;447;51.332;6.778;2023-02-07T15:24:03;5.30;99.90
921;DHT22;447;51.332;6.778;2023-02-07T15:26:30;5.30;99.90
921;DHT22;447;51.332;6.778;2023-02-07T15:29:15;5.30;99.90
921;DHT22;447;51.332;6.778;2023-02-07T15:31:45;5.30;99.90
921;DHT22;447;51.332;6.778;2023-02-07T15:34:14;5.30;99.90
921;DHT22;447;51.332;6.778;2023-02-07T15:36:43;5.30;99.90
921;DHT22;447;51.332;6.778;2023-02-07T15:39:18;5.30;99.90
921;DHT22;447;51.332;6.778;2023-02-07T15:41:51;5.30;99.90
921;DHT22;447;51.332;6.778;2023-02-07T15:44:21;5.30;99.90
921;DHT22;447;51.332;6.778;2023-02-07T15:54:47;5.30;99.90
921;DHT22;447;51.332;6.778;2023-02-07T15:57:39;5.30;99.90
921;DHT22;447;51.332;6.778;2023-02-07T16:00:12;5.30;99.90
921;DHT22;447;51.332;6.778;2023-02-07T16:02:43;5.30;99.90
921;DHT22;447;51.332;6.778;2023-02-07T16:05:25;5.30;99.90
921;DHT22;447;51.332;6.778;2023-02-07T16:07:55;5.30;99.90
921;DHT22;447;51.332;6.778;2023-02-07T16:10:38;5.30;99.90
921;DHT22;447;51.332;6.778;2023-02-07T16:13:16;5.30;99.90
921;DHT22;447;51.332;6.778;2023-02-07T16:15:58;5.30;99.90
921;DHT22;447;51.332;6.778;2023-02-07T16:18:37;5.20;99.90
921;DHT22;447;51.332;6.778;2023-02-07T16:21:06;5.20;99.90
921;DHT22;447;51.332;6.778;2023-02-07T16:23:38;5.20;99.90
921;DHT22;447;51.332;6.778;2023-02-07T16:26:05;5.30;99.90
921;DHT22;447;51.332;6.778;2023-02-07T16:28:33;5.20;99.90
921;DHT22;447;51.332;6.778;2023-02-07T16:31:00;5.20;99.90
921;DHT22;447;51.332;6.778;2023-02-07T16:33:26;5.20;99.90
921;DHT22;447;51.332;6.778;2023-02-07T16:35:52;5.20;99.90
921;DHT22;447;51.332;6.778;2023-02-07T16:38:18;5.20;99.90
921;DHT22;447;51.332;6.778;2023-02-07T16:40:44;5.20;99.90
921;DHT22;447;51.332;6.778;2023-02-07T16:45:55;5.20;99.90
921;DHT22;447;51.332;6.778;2023-02-07T16:48:21;5.20;99.90
921;DHT22;447;51.332;6.778;2023-02-07T16:50:50;5.20;99.90
921;DHT22;447;51.332;6.778;2023-02-07T16:53:18;5.20;99.90
921;DHT22;447;51.332;6.778;2023-02-07T16:55:44;5.20;99.90
921;DHT22;447;51.332;6.778;2023-02-07T16:58:29;5.20;99.90
921;DHT22;447;51.332;6.778;2023-02-07T17:00:56;5.20;99.90
921;DHT22;447;51.332;6.778;2023-02-07T17:03:22;5.20;99.90
921;DHT22;447;51.332;6.778;2023-02-07T17:05:51;5.20;99.90
921;DHT22;447;51.332;6.778;2023-02-07T17:08:22;5.20;99.90
921;DHT22;447;51.332;6.778;2023-02-07T17:10:57;5.20;99.90
921;DHT22;447;51.332;6.778;2023-02-07T17:13:29;5.20;99.90
921;DHT22;447;51.332;6.778;2023-02-07T17:15:57;5.20;99.90
921;DHT22;447;51.332;6.778;2023-02-07T17:18:24;5.20;99.90
921;DHT22;447;51.332;6.778;2023-02-07T17:20:55;5.20;99.90
921;DHT22;447;51.332;6.778;2023-02-07T17:23:21;5.30;99.90
921;DHT22;447;51.332;6.778;2023-02-07T17:25:49;5.30;99.90
921;DHT22;447;51.332;6.778;2023-02-07T17:28:15;5.30;99.90
921;DHT22;447;51.332;6.778;2023-02-07T17:30:42;5.30;99.90
921;DHT22;447;51.332;6.778;2023-02-07T17:33:09;5.30;99.90
921;DHT22;447;51.332;6.778;2023-02-07T17:35:36;5.30;99.90
921;DHT22;447;51.332;6.778;2023-02-07T17:38:05;5.20;99.90
921;DHT22;447;51.332;6.778;2023-02-07T17:40:39;5.30;99.90
921;DHT22;447;51.332;6.778;2023-02-07T17:43:06;5.20;99.90
921;DHT22;447;51.332;6.778;2023-02-07T17:45:37;5.20;99.90
921;DHT22;447;51.332;6.778;2023-02-07T17:48:10;5.20;99.90
921;DHT22;447;51.332;6.778;2023-02-07T17:50:39;5.20;99.90
921;DHT22;447;51.332;6.778;2023-02-07T17:53:08;5.20;99.90
921;DHT22;447;51.332;6.778;2023-02-07T17:55:35;5.20;99.90
921;DHT22;447;51.332;6.778;2023-02-07T17:58:03;5.20;99.90
921;DHT22;447;51.332;6.778;2023-02-07T18:00:37;5.20;99.90
921;DHT22;447;51.332;6.778;2023-02-07T18:03:06;5.20;99.90
921;DHT22;447;51.332;6.778;2023-02-07T18:05:33;5.20;99.90
921;DHT22;447;51.332;6.778;2023-02-07T18:08:01;5.20;99.90
921;DHT22;447;51.332;6.778;2023-02-07T18:10:31;5.20;99.90
921;DHT22;447;51.332;6.778;2023-02-07T18:12:57;5.20;99.90
921;DHT22;447;51.332;6.778;2023-02-07T18:15:24;5.20;99.90
921;DHT22;447;51.332;6.778;2023-02-07T18:17:53;5.20;99.90
921;DHT22;447;51.332;6.778;2023-02-07T18:20:24;5.10;99.90
921;DHT22;447;51.332;6.778;2023-02-07T18:22:54;5.10;99.90
921;DHT22;447;51.332;6.778;2023-02-07T18:25:21;5.10;99.90
921;DHT22;447;51.332;6.778;2023-02-07T18:27:50;5.10;99.90
921;DHT22;447;51.332;6.778;2023-02-07T18:30:19;5.10;99.90
921;DHT22;447;51.332;6.778;2023-02-07T18:32:45;5.10;99.90
921;DHT22;447;51.332;6.778;2023-02-07T18:35:11;5.20;99.90
921;DHT22;447;51.332;6.778;2023-02-07T18:37:37;5.10;99.90
921;DHT22;447;51.332;6.778;2023-02-07T18:40:05;5.10;99.90
921;DHT22;447;51.332;6.778;2023-02-07T18:42:34;5.10;99.90
921;DHT22;447;51.332;6.778;2023-02-07T18:45:07;5.10;99.90
921;DHT22;447;51.332;6.778;2023-02-07T18:47:33;5.10;99.90
921;DHT22;447;51.332;6.778;2023-02-07T18:50:04;5.10;99.90
921;DHT22;447;51.332;6.778;2023-02-07T18:52:31;5.10;99.90
921;DHT22;447;51.332;6.778;2023-02-07T18:55:03;5.10;99.90
921;DHT22;447;51.332;6.778;2023-02-07T18:57:31;5.10;99.90
921;DHT22;447;51.332;6.778;2023-02-07T18:59:57;5.10;99.90
921;DHT22;447;51.332;6.778;2023-02-07T19:02:25;5.10;99.90
921;DHT22;447;51.332;6.778;2023-02-07T19:04:57;5.00;99.90
921;DHT22;447;51.332;6.778;2023-02-07T19:07:23;5.00;99.90
921;DHT22;447;51.332;6.778;2023-02-07T19:09:49;5.00;99.90
921;DHT22;447;51.332;6.778;2023-02-07T19:12:15;5.00;99.90
921;DHT22;447;51.332;6.778;2023-02-07T19:14:41;5.00;99.90
921;DHT22;447;51.332;6.778;2023-02-07T19:17:07;5.00;99.90
921;DHT22;447;51.332;6.778;2023-02-07T19:19:36;5.00;99.90
921;DHT22;447;51.332;6.778;2023-02-07T19:22:02;5.00;99.90
921;DHT22;447;51.332;6.778;2023-02-07T19:24:28;5.00;99.90
921;DHT22;447;51.332;6.778;2023-02-07T19:26:57;5.00;99.90
921;DHT22;447;51.332;6.778;2023-02-07T19:29:25;5.00;99.90
921;DHT22;447;51.332;6.778;2023-02-07T19:31:56;5.00;99.90
921;DHT22;447;51.332;6.778;2023-02-07T19:34:25;5.00;99.90
921;DHT22;447;51.332;6.778;2023-02-07T19:36:51;5.00;99.90
921;DHT22;447;51.332;6.778;2023-02-07T19:39:17;5.00;99.90
921;DHT22;447;51.332;6.778;2023-02-07T19:41:44;5.00;99.90
921;DHT22;447;51.332;6.778;2023-02-07T19:44:10;4.90;99.90
921;DHT22;447;51.332;6.778;2023-02-07T19:46:37;4.90;99.90